sensor_id;sensor_type;location;lat;lon;timestamp;P1;durP1;ratioP1;P2;durP2;ratioP2
71503;SDS011;59323;50.874;7.028;2023-12-29T00:00:38;3.30;;;0.60;;
71503;SDS011;59323;50.874;7.028;2023-12-29T00:03:03;2.13;;;0.50;;
71503;SDS011;59323;50.874;7.028;2023-12-29T00:05:29;4.22;;;0.60;;
71503;SDS011;59323;50.874;7.028;2023-12-29T00:07:54;2.57;;;0.53;;
71503;SDS011;59323;50.874;7.028;2023-12-29T00:10:19;2.83;;;0.70;;
71503;SDS011;59323;50.874;7.028;2023-12-29T00:12:45;2.47;;;0.70;;
71503;SDS011;59323;50.874;7.028;2023-12-29T00:15:10;4.60;;;0.90;;
71503;SDS011;59323;50.874;7.028;2023-12-29T00:17:35;2.50;;;0.90;;
71503;SDS011;59323;50.874;7.028;2023-12-29T00:20:05;5.22;;;0.80;;
71503;SDS011;59323;50.874;7.028;2023-12-29T00:22:32;5.97;;;0.90;;
71503;SDS011;59323;50.874;7.028;2023-12-29T00:24:58;3.20;;;0.70;;
71503;SDS011;59323;50.874;7.028;2023-12-29T00:27:23;3.70;;;0.90;;
71503;SDS011;59323;50.874;7.028;2023-12-29T00:29:49;4.67;;;0.77;;
71503;SDS011;59323;50.874;7.028;2023-12-29T00:32:14;4.97;;;0.82;;
71503;SDS011;59323;50.874;7.028;2023-12-29T00:34:39;3.77;;;0.53;;
71503;SDS011;59323;50.874;7.028;2023-12-29T00:37:05;2.47;;;0.70;;
71503;SDS011;59323;50.874;7.028;2023-12-29T00:39:31;2.67;;;0.55;;
71503;SDS011;59323;50.874;7.028;2023-12-29T00:42:03;3.38;;;0.70;;
71503;SDS011;59323;50.874;7.028;2023-12-29T00:44:29;3.57;;;0.67;;
71503;SDS011;59323;50.874;7.028;2023-12-29T00:46:55;4.40;;;1.13;;
71503;SDS011;59323;50.874;7.028;2023-12-29T00:49:20;6.07;;;1.10;;
71503;SDS011;59323;50.874;7.028;2023-12-29T00:51:46;2.80;;;0.70;;
71503;SDS011;59323;50.874;7.028;2023-12-29T00:54:13;5.20;;;0.88;;
71503;SDS011;59323;50.874;7.028;2023-12-29T00:56:38;3.97;;;0.87;;
71503;SDS011;59323;50.874;7.028;2023-12-29T00:59:03;5.13;;;0.93;;
71503;SDS011;59323;50.874;7.028;2023-12-29T01:01:32;4.32;;;0.90;;
71503;SDS011;59323;50.874;7.028;2023-12-29T01:03:59;4.23;;;1.33;;
71503;SDS011;59323;50.874;7.028;2023-12-29T01:06:25;2.88;;;0.80;;
71503;SDS011;59323;50.874;7.028;2023-12-29T01:08:50;2.97;;;0.60;;
71503;SDS011;59323;50.874;7.028;2023-12-29T01:11:16;5.57;;;1.27;;
71503;SDS011;59323;50.874;7.028;2023-12-29T01:13:41;3.73;;;1.00;;
71503;SDS011;59323;50.874;7.028;2023-12-29T01:16:06;6.43;;;0.80;;
71503;SDS011;59323;50.874;7.028;2023-12-29T01:18:32;4.60;;;0.80;;
71503;SDS011;59323;50.874;7.028;2023-12-29T01:20:57;7.17;;;1.13;;
71503;SDS011;59323;50.874;7.028;2023-12-29T01:23:23;6.10;;;1.00;;
71503;SDS011;59323;50.874;7.028;2023-12-29T01:25:48;4.23;;;0.80;;
71503;SDS011;59323;50.874;7.028;2023-12-29T01:28:13;4.60;;;0.70;;
71503;SDS011;59323;50.874;7.028;2023-12-29T01:30:39;4.93;;;1.05;;
71503;SDS011;59323;50.874;7.028;2023-12-29T01:33:04;4.40;;;1.00;;
71503;SDS011;59323;50.874;7.028;2023-12-29T01:35:30;4.80;;;1.08;;
71503;SDS011;59323;50.874;7.028;2023-12-29T01:37:55;4.10;;;0.87;;
71503;SDS011;59323;50.874;7.028;2023-12-29T01:40:22;4.97;;;0.80;;
71503;SDS011;59323;50.874;7.028;2023-12-29T01:42:47;6.60;;;1.30;;
71503;SDS011;59323;50.874;7.028;2023-12-29T01:45:20;10.13;;;0.88;;
71503;SDS011;59323;50.874;7.028;2023-12-29T01:47:49;6.77;;;0.80;;
71503;SDS011;59323;50.874;7.028;2023-12-29T01:50:16;5.07;;;0.95;;
71503;SDS011;59323;50.874;7.028;2023-12-29T01:52:43;7.30;;;1.08;;
71503;SDS011;59323;50.874;7.028;2023-12-29T01:55:10;4.22;;;0.88;;
71503;SDS011;59323;50.874;7.028;2023-12-29T01:57:40;5.65;;;1.15;;
71503;SDS011;59323;50.874;7.028;2023-12-29T02:00:06;5.40;;;0.80;;
71503;SDS011;59323;50.874;7.028;2023-12-29T02:02:32;4.90;;;0.98;;
71503;SDS011;59323;50.874;7.028;2023-12-29T02:04:57;6.93;;;0.80;;
71503;SDS011;59323;50.874;7.028;2023-12-29T02:07:23;7.63;;;1.13;;
71503;SDS011;59323;50.874;7.028;2023-12-29T02:09:49;5.70;;;1.20;;
71503;SDS011;59323;50.874;7.028;2023-12-29T02:12:16;6.03;;;0.90;;
71503;SDS011;59323;50.874;7.028;2023-12-29T02:14:42;5.20;;;0.80;;
71503;SDS011;59323;50.874;7.028;2023-12-29T02:17:15;5.83;;;0.90;;
71503;SDS011;59323;50.874;7.028;2023-12-29T02:19:51;5.70;;;1.00;;
71503;SDS011;59323;50.874;7.028;2023-12-29T02:22:17;5.65;;;0.80;;
71503;SDS011;59323;50.874;7.028;2023-12-29T02:24:46;5.47;;;1.17;;
71503;SDS011;59323;50.874;7.028;2023-12-29T02:32:47;6.25;;;1.10;;
71503;SDS011;59323;50.874;7.028;2023-12-29T02:35:16;5.03;;;1.03;;
71503;SDS011;59323;50.874;7.028;2023-12-29T02:37:43;5.07;;;1.13;;
71503;SDS011;59323;50.874;7.028;2023-12-29T02:40:09;5.68;;;1.05;;
71503;SDS011;59323;50.874;7.028;2023-12-29T02:42:35;5.88;;;1.02;;
71503;SDS011;59323;50.874;7.028;2023-12-29T02:45:01;3.50;;;0.70;;
71503;SDS011;59323;50.874;7.028;2023-12-29T02:47:27;3.67;;;0.60;;
71503;SDS011;59323;50.874;7.028;2023-12-29T02:49:52;6.00;;;0.97;;
71503;SDS011;59323;50.874;7.028;2023-12-29T02:52:17;3.00;;;0.70;;
71503;SDS011;59323;50.874;7.028;2023-12-29T02:54:43;5.63;;;0.70;;
71503;SDS011;59323;50.874;7.028;2023-12-29T02:57:08;3.67;;;0.77;;
71503;SDS011;59323;50.874;7.028;2023-12-29T02:59:34;4.95;;;0.95;;
71503;SDS011;59323;50.874;7.028;2023-12-29T03:01:59;4.13;;;0.70;;
71503;SDS011;59323;50.874;7.028;2023-12-29T03:04:25;4.07;;;1.10;;
71503;SDS011;59323;50.874;7.028;2023-12-29T03:06:50;6.37;;;0.70;;
71503;SDS011;59323;50.874;7.028;2023-12-29T03:09:15;5.77;;;0.63;;
71503;SDS011;59323;50.874;7.028;2023-12-29T03:11:41;5.30;;;1.00;;
71503;SDS011;59323;50.874;7.028;2023-12-29T03:14:06;2.77;;;0.60;;
71503;SDS011;59323;50.874;7.028;2023-12-29T03:16:31;6.23;;;0.70;;
71503;SDS011;59323;50.874;7.028;2023-12-29T03:18:57;3.67;;;0.83;;
71503;SDS011;59323;50.874;7.028;2023-12-29T03:21:24;5.20;;;0.88;;
71503;SDS011;59323;50.874;7.028;2023-12-29T03:23:49;2.33;;;0.60;;
71503;SDS011;59323;50.874;7.028;2023-12-29T03:26:15;5.28;;;0.77;;
71503;SDS011;59323;50.874;7.028;2023-12-29T03:28:40;5.97;;;0.70;;
71503;SDS011;59323;50.874;7.028;2023-12-29T03:31:06;6.40;;;0.70;;
71503;SDS011;59323;50.874;7.028;2023-12-29T03:33:31;4.10;;;0.98;;
71503;SDS011;59323;50.874;7.028;2023-12-29T03:35:57;4.83;;;0.90;;
71503;SDS011;59323;50.874;7.028;2023-12-29T03:38:22;5.80;;;1.10;;
71503;SDS011;59323;50.874;7.028;2023-12-29T03:40:47;4.97;;;1.33;;
71503;SDS011;59323;50.874;7.028;2023-12-29T03:43:13;6.40;;;1.50;;
71503;SDS011;59323;50.874;7.028;2023-12-29T03:45:38;6.50;;;1.48;;
71503;SDS011;59323;50.874;7.028;2023-12-29T03:48:04;6.33;;;1.30;;
71503;SDS011;59323;50.874;7.028;2023-12-29T03:50:29;4.23;;;0.83;;
71503;SDS011;59323;50.874;7.028;2023-12-29T03:52:54;5.33;;;1.00;;
71503;SDS011;59323;50.874;7.028;2023-12-29T03:55:20;8.60;;;1.10;;
71503;SDS011;59323;50.874;7.028;2023-12-29T03:57:45;6.87;;;1.03;;
71503;SDS011;59323;50.874;7.028;2023-12-29T04:00:11;6.00;;;0.90;;
71503;SDS011;59323;50.874;7.028;2023-12-29T04:02:37;4.88;;;0.60;;
71503;SDS011;59323;50.874;7.028;2023-12-29T04:05:03;2.77;;;0.60;;
71503;SDS011;59323;50.874;7.028;2023-12-29T04:07:30;5.78;;;0.60;;
71503;SDS011;59323;50.874;7.028;2023-12-29T04:09:55;4.23;;;0.70;;
71503;SDS011;59323;50.874;7.028;2023-12-29T04:12:21;7.20;;;1.07;;
71503;SDS011;59323;50.874;7.028;2023-12-29T04:14:46;4.30;;;0.70;;
71503;SDS011;59323;50.874;7.028;2023-12-29T04:17:11;5.30;;;0.67;;
71503;SDS011;59323;50.874;7.028;2023-12-29T04:19:39;3.80;;;0.70;;
71503;SDS011;59323;50.874;7.028;2023-12-29T04:22:06;5.97;;;0.88;;
71503;SDS011;59323;50.874;7.028;2023-12-29T04:24:31;3.77;;;0.70;;
71503;SDS011;59323;50.874;7.028;2023-12-29T04:26:57;2.28;;;0.60;;
71503;SDS011;59323;50.874;7.028;2023-12-29T04:29:22;5.50;;;0.87;;
71503;SDS011;59323;50.874;7.028;2023-12-29T04:31:48;7.57;;;0.60;;
71503;SDS011;59323;50.874;7.028;2023-12-29T04:34:13;3.93;;;0.60;;
71503;SDS011;59323;50.874;7.028;2023-12-29T04:36:38;3.88;;;0.50;;
71503;SDS011;59323;50.874;7.028;2023-12-29T04:39:04;3.80;;;0.63;;
71503;SDS011;59323;50.874;7.028;2023-12-29T04:41:29;2.57;;;0.60;;
71503;SDS011;59323;50.874;7.028;2023-12-29T04:43:55;3.10;;;0.80;;
71503;SDS011;59323;50.874;7.028;2023-12-29T04:46:20;6.47;;;0.60;;
71503;SDS011;59323;50.874;7.028;2023-12-29T04:48:45;4.00;;;0.50;;
71503;SDS011;59323;50.874;7.028;2023-12-29T04:51:11;5.83;;;0.73;;
71503;SDS011;59323;50.874;7.028;2023-12-29T04:53:36;2.07;;;0.47;;
71503;SDS011;59323;50.874;7.028;2023-12-29T04:56:01;3.53;;;0.50;;
71503;SDS011;59323;50.874;7.028;2023-12-29T04:58:27;4.97;;;0.68;;
71503;SDS011;59323;50.874;7.028;2023-12-29T05:00:52;4.47;;;0.70;;
71503;SDS011;59323;50.874;7.028;2023-12-29T05:03:17;3.43;;;0.63;;
71503;SDS011;59323;50.874;7.028;2023-12-29T05:05:43;6.17;;;0.73;;
71503;SDS011;59323;50.874;7.028;2023-12-29T05:08:08;5.00;;;0.60;;
71503;SDS011;59323;50.874;7.028;2023-12-29T05:10:33;2.83;;;0.57;;
71503;SDS011;59323;50.874;7.028;2023-12-29T05:13:01;4.78;;;0.80;;
71503;SDS011;59323;50.874;7.028;2023-12-29T05:15:27;6.03;;;0.70;;
71503;SDS011;59323;50.874;7.028;2023-12-29T05:17:52;4.70;;;0.60;;
71503;SDS011;59323;50.874;7.028;2023-12-29T05:20:17;6.00;;;0.90;;
71503;SDS011;59323;50.874;7.028;2023-12-29T05:22:43;4.17;;;0.70;;
71503;SDS011;59323;50.874;7.028;2023-12-29T05:25:08;4.63;;;0.70;;
71503;SDS011;59323;50.874;7.028;2023-12-29T05:27:34;5.50;;;0.82;;
71503;SDS011;59323;50.874;7.028;2023-12-29T05:29:59;4.37;;;0.57;;
71503;SDS011;59323;50.874;7.028;2023-12-29T05:32:24;4.77;;;0.47;;
71503;SDS011;59323;50.874;7.028;2023-12-29T05:34:50;4.27;;;0.50;;
71503;SDS011;59323;50.874;7.028;2023-12-29T05:37:15;10.07;;;0.80;;
71503;SDS011;59323;50.874;7.028;2023-12-29T05:39:43;3.57;;;0.70;;
71503;SDS011;59323;50.874;7.028;2023-12-29T05:42:09;5.90;;;0.65;;
71503;SDS011;59323;50.874;7.028;2023-12-29T05:44:37;4.40;;;0.93;;
71503;SDS011;59323;50.874;7.028;2023-12-29T05:47:04;4.25;;;0.60;;
71503;SDS011;59323;50.874;7.028;2023-12-29T05:49:29;6.57;;;1.05;;
71503;SDS011;59323;50.874;7.028;2023-12-29T05:51:55;6.63;;;0.97;;
71503;SDS011;59323;50.874;7.028;2023-12-29T05:54:23;3.87;;;0.67;;
71503;SDS011;59323;50.874;7.028;2023-12-29T05:57:05;6.25;;;0.80;;
71503;SDS011;59323;50.874;7.028;2023-12-29T05:59:30;2.20;;;0.80;;
71503;SDS011;59323;50.874;7.028;2023-12-29T06:01:56;5.50;;;1.10;;
71503;SDS011;59323;50.874;7.028;2023-12-29T06:04:21;8.87;;;1.30;;
71503;SDS011;59323;50.874;7.028;2023-12-29T06:06:47;7.43;;;0.63;;
71503;SDS011;59323;50.874;7.028;2023-12-29T06:09:12;4.17;;;0.77;;
71503;SDS011;59323;50.874;7.028;2023-12-29T06:11:37;3.28;;;0.70;;
71503;SDS011;59323;50.874;7.028;2023-12-29T06:14:03;3.30;;;0.70;;
71503;SDS011;59323;50.874;7.028;2023-12-29T06:16:29;3.57;;;0.67;;
71503;SDS011;59323;50.874;7.028;2023-12-29T06:18:55;5.43;;;0.50;;
71503;SDS011;59323;50.874;7.028;2023-12-29T06:21:21;3.97;;;0.50;;
71503;SDS011;59323;50.874;7.028;2023-12-29T06:23:46;2.70;;;0.77;;
71503;SDS011;59323;50.874;7.028;2023-12-29T06:26:15;3.07;;;0.87;;
71503;SDS011;59323;50.874;7.028;2023-12-29T06:28:45;6.18;;;0.80;;
71503;SDS011;59323;50.874;7.028;2023-12-29T06:31:11;5.47;;;0.75;;
71503;SDS011;59323;50.874;7.028;2023-12-29T06:33:38;2.40;;;0.50;;
71503;SDS011;59323;50.874;7.028;2023-12-29T06:36:06;5.18;;;0.85;;
71503;SDS011;59323;50.874;7.028;2023-12-29T06:38:32;8.80;;;1.13;;
71503;SDS011;59323;50.874;7.028;2023-12-29T06:40:59;5.40;;;0.67;;
71503;SDS011;59323;50.874;7.028;2023-12-29T06:43:28;2.75;;;0.65;;
71503;SDS011;59323;50.874;7.028;2023-12-29T06:45:54;2.93;;;0.50;;
71503;SDS011;59323;50.874;7.028;2023-12-29T06:48:19;2.58;;;0.55;;
71503;SDS011;59323;50.874;7.028;2023-12-29T06:50:45;4.80;;;0.50;;
71503;SDS011;59323;50.874;7.028;2023-12-29T06:53:20;4.05;;;0.50;;
71503;SDS011;59323;50.874;7.028;2023-12-29T06:55:45;3.30;;;0.80;;
71503;SDS011;59323;50.874;7.028;2023-12-29T06:58:14;2.03;;;0.40;;
71503;SDS011;59323;50.874;7.028;2023-12-29T07:01:04;4.80;;;0.70;;
71503;SDS011;59323;50.874;7.028;2023-12-29T07:07:13;6.38;;;0.90;;
71503;SDS011;59323;50.874;7.028;2023-12-29T07:14:30;3.88;;;0.75;;
71503;SDS011;59323;50.874;7.028;2023-12-29T07:16:56;3.87;;;0.50;;
71503;SDS011;59323;50.874;7.028;2023-12-29T07:19:21;2.97;;;0.50;;
71503;SDS011;59323;50.874;7.028;2023-12-29T07:21:46;4.30;;;0.70;;
71503;SDS011;59323;50.874;7.028;2023-12-29T07:24:12;1.63;;;0.40;;
71503;SDS011;59323;50.874;7.028;2023-12-29T07:26:37;3.43;;;0.70;;
71503;SDS011;59323;50.874;7.028;2023-12-29T07:29:03;5.23;;;0.60;;
71503;SDS011;59323;50.874;7.028;2023-12-29T07:31:28;3.00;;;0.57;;
71503;SDS011;59323;50.874;7.028;2023-12-29T07:33:55;1.45;;;0.47;;
71503;SDS011;59323;50.874;7.028;2023-12-29T07:36:21;4.93;;;0.70;;
71503;SDS011;59323;50.874;7.028;2023-12-29T07:38:46;2.42;;;0.52;;
71503;SDS011;59323;50.874;7.028;2023-12-29T07:41:12;4.63;;;0.50;;
71503;SDS011;59323;50.874;7.028;2023-12-29T07:43:37;2.43;;;0.40;;
71503;SDS011;59323;50.874;7.028;2023-12-29T07:46:03;2.30;;;0.40;;
71503;SDS011;59323;50.874;7.028;2023-12-29T07:48:28;3.33;;;0.40;;
71503;SDS011;59323;50.874;7.028;2023-12-29T07:50:54;2.77;;;0.50;;
71503;SDS011;59323;50.874;7.028;2023-12-29T07:53:23;2.92;;;0.60;;
71503;SDS011;59323;50.874;7.028;2023-12-29T07:55:49;3.17;;;0.50;;
71503;SDS011;59323;50.874;7.028;2023-12-29T07:58:15;3.38;;;0.40;;
71503;SDS011;59323;50.874;7.028;2023-12-29T08:00:43;1.63;;;0.40;;
71503;SDS011;59323;50.874;7.028;2023-12-29T08:03:09;3.00;;;0.40;;
71503;SDS011;59323;50.874;7.028;2023-12-29T08:05:39;3.33;;;0.52;;
71503;SDS011;59323;50.874;7.028;2023-12-29T08:08:05;4.00;;;0.50;;
71503;SDS011;59323;50.874;7.028;2023-12-29T08:10:33;3.90;;;0.50;;
71503;SDS011;59323;50.874;7.028;2023-12-29T08:13:03;4.40;;;0.73;;
71503;SDS011;59323;50.874;7.028;2023-12-29T08:15:29;2.80;;;0.50;;
71503;SDS011;59323;50.874;7.028;2023-12-29T08:17:59;3.22;;;0.60;;
71503;SDS011;59323;50.874;7.028;2023-12-29T08:20:24;4.95;;;0.63;;
71503;SDS011;59323;50.874;7.028;2023-12-29T08:22:55;3.70;;;0.52;;
71503;SDS011;59323;50.874;7.028;2023-12-29T08:25:22;3.80;;;0.67;;
71503;SDS011;59323;50.874;7.028;2023-12-29T08:27:47;2.53;;;0.60;;
71503;SDS011;59323;50.874;7.028;2023-12-29T08:30:13;5.03;;;0.50;;
71503;SDS011;59323;50.874;7.028;2023-12-29T08:32:42;6.07;;;0.55;;
71503;SDS011;59323;50.874;7.028;2023-12-29T08:35:07;3.72;;;0.57;;
71503;SDS011;59323;50.874;7.028;2023-12-29T08:37:35;3.40;;;0.70;;
71503;SDS011;59323;50.874;7.028;2023-12-29T08:40:00;7.38;;;0.85;;
71503;SDS011;59323;50.874;7.028;2023-12-29T08:42:26;4.00;;;0.50;;
71503;SDS011;59323;50.874;7.028;2023-12-29T08:44:53;4.75;;;0.50;;
71503;SDS011;59323;50.874;7.028;2023-12-29T08:47:18;5.43;;;0.70;;
71503;SDS011;59323;50.874;7.028;2023-12-29T08:49:43;7.50;;;0.70;;
71503;SDS011;59323;50.874;7.028;2023-12-29T08:52:09;6.33;;;0.80;;
71503;SDS011;59323;50.874;7.028;2023-12-29T08:54:35;2.77;;;0.70;;
71503;SDS011;59323;50.874;7.028;2023-12-29T08:57:02;4.32;;;0.60;;
71503;SDS011;59323;50.874;7.028;2023-12-29T08:59:28;3.10;;;0.50;;
71503;SDS011;59323;50.874;7.028;2023-12-29T09:01:53;2.83;;;0.60;;
71503;SDS011;59323;50.874;7.028;2023-12-29T09:04:18;3.43;;;0.77;;
71503;SDS011;59323;50.874;7.028;2023-12-29T09:06:44;5.05;;;0.65;;
71503;SDS011;59323;50.874;7.028;2023-12-29T09:09:09;5.70;;;0.70;;
71503;SDS011;59323;50.874;7.028;2023-12-29T09:11:44;4.07;;;0.73;;
71503;SDS011;59323;50.874;7.028;2023-12-29T09:14:10;4.00;;;0.60;;
71503;SDS011;59323;50.874;7.028;2023-12-29T09:16:35;2.55;;;0.32;;
71503;SDS011;59323;50.874;7.028;2023-12-29T09:19:01;3.90;;;0.57;;
71503;SDS011;59323;50.874;7.028;2023-12-29T09:21:26;3.33;;;0.70;;
71503;SDS011;59323;50.874;7.028;2023-12-29T09:23:52;8.23;;;0.80;;
71503;SDS011;59323;50.874;7.028;2023-12-29T09:26:21;1.60;;;0.43;;
71503;SDS011;59323;50.874;7.028;2023-12-29T09:28:47;4.60;;;0.60;;
71503;SDS011;59323;50.874;7.028;2023-12-29T09:31:12;4.55;;;0.60;;
71503;SDS011;59323;50.874;7.028;2023-12-29T09:33:38;4.60;;;0.70;;
71503;SDS011;59323;50.874;7.028;2023-12-29T09:36:03;4.97;;;0.70;;
71503;SDS011;59323;50.874;7.028;2023-12-29T09:38:29;2.80;;;0.55;;
71503;SDS011;59323;50.874;7.028;2023-12-29T09:40:55;5.20;;;0.70;;
71503;SDS011;59323;50.874;7.028;2023-12-29T09:43:27;3.42;;;0.50;;
71503;SDS011;59323;50.874;7.028;2023-12-29T09:45:55;2.97;;;0.60;;
71503;SDS011;59323;50.874;7.028;2023-12-29T09:48:21;3.47;;;0.50;;
71503;SDS011;59323;50.874;7.028;2023-12-29T09:50:51;3.57;;;0.60;;
71503;SDS011;59323;50.874;7.028;2023-12-29T09:53:17;8.25;;;0.80;;
71503;SDS011;59323;50.874;7.028;2023-12-29T09:55:45;3.00;;;0.50;;
71503;SDS011;59323;50.874;7.028;2023-12-29T09:58:17;3.53;;;0.30;;
71503;SDS011;59323;50.874;7.028;2023-12-29T10:00:46;5.63;;;0.70;;
71503;SDS011;59323;50.874;7.028;2023-12-29T10:03:33;1.83;;;0.40;;
71503;SDS011;59323;50.874;7.028;2023-12-29T10:06:01;3.42;;;0.50;;
71503;SDS011;59323;50.874;7.028;2023-12-29T10:08:45;4.15;;;0.60;;
71503;SDS011;59323;50.874;7.028;2023-12-29T10:11:40;1.35;;;0.40;;
71503;SDS011;59323;50.874;7.028;2023-12-29T10:15:10;1.63;;;0.40;;
71503;SDS011;59323;50.874;7.028;2023-12-29T10:24:12;1.33;;;0.40;;
71503;SDS011;59323;50.874;7.028;2023-12-29T10:26:40;1.38;;;0.40;;
71503;SDS011;59323;50.874;7.028;2023-12-29T10:29:06;2.47;;;0.30;;
71503;SDS011;59323;50.874;7.028;2023-12-29T10:31:32;2.50;;;0.43;;
71503;SDS011;59323;50.874;7.028;2023-12-29T10:36:58;2.10;;;0.30;;
71503;SDS011;59323;50.874;7.028;2023-12-29T10:39:24;2.72;;;0.30;;
71503;SDS011;59323;50.874;7.028;2023-12-29T10:41:50;3.45;;;0.43;;
71503;SDS011;59323;50.874;7.028;2023-12-29T10:44:29;2.08;;;0.30;;
71503;SDS011;59323;50.874;7.028;2023-12-29T10:46:54;2.30;;;0.40;;
71503;SDS011;59323;50.874;7.028;2023-12-29T10:49:20;4.07;;;0.40;;
71503;SDS011;59323;50.874;7.028;2023-12-29T10:51:45;0.50;;;0.30;;
71503;SDS011;59323;50.874;7.028;2023-12-29T10:54:18;1.30;;;0.40;;
71503;SDS011;59323;50.874;7.028;2023-12-29T10:57:10;0.85;;;0.30;;
71503;SDS011;59323;50.874;7.028;2023-12-29T10:59:38;3.13;;;0.30;;
71503;SDS011;59323;50.874;7.028;2023-12-29T11:02:04;2.30;;;0.47;;
71503;SDS011;59323;50.874;7.028;2023-12-29T11:04:29;2.47;;;0.40;;
71503;SDS011;59323;50.874;7.028;2023-12-29T11:06:55;3.20;;;0.40;;
71503;SDS011;59323;50.874;7.028;2023-12-29T11:09:27;2.00;;;0.50;;
71503;SDS011;59323;50.874;7.028;2023-12-29T11:11:56;2.20;;;0.40;;
71503;SDS011;59323;50.874;7.028;2023-12-29T11:14:24;3.38;;;0.68;;
71503;SDS011;59323;50.874;7.028;2023-12-29T11:16:51;3.38;;;0.63;;
71503;SDS011;59323;50.874;7.028;2023-12-29T11:19:19;2.72;;;0.70;;
71503;SDS011;59323;50.874;7.028;2023-12-29T11:21:46;1.20;;;0.35;;
71503;SDS011;59323;50.874;7.028;2023-12-29T11:24:13;3.33;;;0.40;;
71503;SDS011;59323;50.874;7.028;2023-12-29T11:26:39;1.35;;;0.35;;
71503;SDS011;59323;50.874;7.028;2023-12-29T11:29:08;1.47;;;0.30;;
71503;SDS011;59323;50.874;7.028;2023-12-29T11:31:36;0.57;;;0.30;;
71503;SDS011;59323;50.874;7.028;2023-12-29T11:34:05;0.80;;;0.30;;
71503;SDS011;59323;50.874;7.028;2023-12-29T11:36:40;2.63;;;0.30;;
71503;SDS011;59323;50.874;7.028;2023-12-29T11:39:14;1.75;;;0.47;;
71503;SDS011;59323;50.874;7.028;2023-12-29T11:44:26;1.95;;;0.50;;
71503;SDS011;59323;50.874;7.028;2023-12-29T11:46:52;2.33;;;0.50;;
71503;SDS011;59323;50.874;7.028;2023-12-29T11:49:19;1.52;;;0.38;;
71503;SDS011;59323;50.874;7.028;2023-12-29T11:51:47;1.05;;;0.30;;
71503;SDS011;59323;50.874;7.028;2023-12-29T11:54:23;1.37;;;0.30;;
71503;SDS011;59323;50.874;7.028;2023-12-29T11:56:49;1.55;;;0.50;;
71503;SDS011;59323;50.874;7.028;2023-12-29T11:59:15;1.80;;;0.30;;
71503;SDS011;59323;50.874;7.028;2023-12-29T12:01:42;0.60;;;0.22;;
71503;SDS011;59323;50.874;7.028;2023-12-29T12:07:03;2.40;;;0.40;;
71503;SDS011;59323;50.874;7.028;2023-12-29T12:09:29;1.23;;;0.30;;
71503;SDS011;59323;50.874;7.028;2023-12-29T12:11:55;1.30;;;0.50;;
71503;SDS011;59323;50.874;7.028;2023-12-29T12:17:26;2.28;;;0.50;;
71503;SDS011;59323;50.874;7.028;2023-12-29T12:19:59;1.17;;;0.30;;
71503;SDS011;59323;50.874;7.028;2023-12-29T12:22:29;1.17;;;0.40;;
71503;SDS011;59323;50.874;7.028;2023-12-29T12:24:59;1.42;;;0.40;;
71503;SDS011;59323;50.874;7.028;2023-12-29T12:27:26;0.90;;;0.50;;
71503;SDS011;59323;50.874;7.028;2023-12-29T12:29:53;1.27;;;0.50;;
71503;SDS011;59323;50.874;7.028;2023-12-29T12:32:21;4.22;;;0.50;;
71503;SDS011;59323;50.874;7.028;2023-12-29T12:34:47;1.23;;;0.50;;
71503;SDS011;59323;50.874;7.028;2023-12-29T12:37:12;2.47;;;0.73;;
71503;SDS011;59323;50.874;7.028;2023-12-29T12:39:43;1.08;;;0.40;;
71503;SDS011;59323;50.874;7.028;2023-12-29T12:42:08;1.47;;;0.50;;
71503;SDS011;59323;50.874;7.028;2023-12-29T12:44:34;2.85;;;0.65;;
71503;SDS011;59323;50.874;7.028;2023-12-29T12:47:08;2.03;;;0.80;;
71503;SDS011;59323;50.874;7.028;2023-12-29T12:49:39;1.63;;;0.60;;
71503;SDS011;59323;50.874;7.028;2023-12-29T12:52:05;2.08;;;0.52;;
71503;SDS011;59323;50.874;7.028;2023-12-29T12:54:31;2.70;;;0.60;;
71503;SDS011;59323;50.874;7.028;2023-12-29T12:56:56;0.70;;;0.40;;
71503;SDS011;59323;50.874;7.028;2023-12-29T12:59:26;1.87;;;0.80;;
71503;SDS011;59323;50.874;7.028;2023-12-29T13:01:52;1.23;;;0.70;;
71503;SDS011;59323;50.874;7.028;2023-12-29T13:04:18;1.33;;;0.60;;
71503;SDS011;59323;50.874;7.028;2023-12-29T13:06:44;1.80;;;0.70;;
71503;SDS011;59323;50.874;7.028;2023-12-29T13:09:10;1.50;;;0.60;;
71503;SDS011;59323;50.874;7.028;2023-12-29T13:11:40;1.42;;;0.43;;
71503;SDS011;59323;50.874;7.028;2023-12-29T13:14:08;1.77;;;0.60;;
71503;SDS011;59323;50.874;7.028;2023-12-29T13:16:37;1.10;;;0.60;;
71503;SDS011;59323;50.874;7.028;2023-12-29T13:19:22;1.25;;;0.60;;
71503;SDS011;59323;50.874;7.028;2023-12-29T13:21:52;1.10;;;0.40;;
71503;SDS011;59323;50.874;7.028;2023-12-29T13:24:20;0.73;;;0.35;;
71503;SDS011;59323;50.874;7.028;2023-12-29T13:26:50;1.95;;;0.55;;
71503;SDS011;59323;50.874;7.028;2023-12-29T13:29:21;2.45;;;0.60;;
71503;SDS011;59323;50.874;7.028;2023-12-29T13:31:50;1.73;;;0.90;;
71503;SDS011;59323;50.874;7.028;2023-12-29T13:34:21;0.87;;;0.53;;
71503;SDS011;59323;50.874;7.028;2023-12-29T13:37:05;1.05;;;0.50;;
71503;SDS011;59323;50.874;7.028;2023-12-29T13:42:21;1.92;;;0.30;;
71503;SDS011;59323;50.874;7.028;2023-12-29T13:44:50;2.85;;;0.40;;
71503;SDS011;59323;50.874;7.028;2023-12-29T13:47:17;2.23;;;0.50;;
71503;SDS011;59323;50.874;7.028;2023-12-29T13:49:43;1.05;;;0.45;;
71503;SDS011;59323;50.874;7.028;2023-12-29T13:52:08;2.15;;;0.40;;
71503;SDS011;59323;50.874;7.028;2023-12-29T13:54:43;1.90;;;0.60;;
71503;SDS011;59323;50.874;7.028;2023-12-29T13:57:09;1.23;;;0.50;;
71503;SDS011;59323;50.874;7.028;2023-12-29T13:59:34;1.40;;;0.30;;
71503;SDS011;59323;50.874;7.028;2023-12-29T14:02:18;1.80;;;0.50;;
71503;SDS011;59323;50.874;7.028;2023-12-29T14:04:48;2.07;;;0.73;;
71503;SDS011;59323;50.874;7.028;2023-12-29T14:07:13;3.78;;;1.02;;
71503;SDS011;59323;50.874;7.028;2023-12-29T14:09:39;2.00;;;0.90;;
71503;SDS011;59323;50.874;7.028;2023-12-29T14:12:05;3.17;;;1.30;;
71503;SDS011;59323;50.874;7.028;2023-12-29T14:14:31;2.58;;;1.38;;
71503;SDS011;59323;50.874;7.028;2023-12-29T14:16:57;3.67;;;1.47;;
71503;SDS011;59323;50.874;7.028;2023-12-29T14:19:22;2.20;;;1.05;;
71503;SDS011;59323;50.874;7.028;2023-12-29T14:21:49;3.20;;;1.43;;
71503;SDS011;59323;50.874;7.028;2023-12-29T14:24:19;3.33;;;1.23;;
71503;SDS011;59323;50.874;7.028;2023-12-29T14:29:21;3.17;;;1.97;;
71503;SDS011;59323;50.874;7.028;2023-12-29T14:31:47;4.05;;;1.90;;
71503;SDS011;59323;50.874;7.028;2023-12-29T14:34:13;5.35;;;1.23;;
71503;SDS011;59323;50.874;7.028;2023-12-29T14:36:40;2.88;;;0.90;;
71503;SDS011;59323;50.874;7.028;2023-12-29T14:39:06;2.87;;;0.60;;
71503;SDS011;59323;50.874;7.028;2023-12-29T14:41:32;2.55;;;0.63;;
71503;SDS011;59323;50.874;7.028;2023-12-29T14:43:58;4.45;;;0.70;;
71503;SDS011;59323;50.874;7.028;2023-12-29T14:46:24;2.10;;;0.70;;
71503;SDS011;59323;50.874;7.028;2023-12-29T14:48:50;3.13;;;0.50;;
71503;SDS011;59323;50.874;7.028;2023-12-29T14:51:17;2.00;;;0.60;;
71503;SDS011;59323;50.874;7.028;2023-12-29T14:53:43;1.57;;;0.50;;
71503;SDS011;59323;50.874;7.028;2023-12-29T14:56:10;1.70;;;0.70;;
71503;SDS011;59323;50.874;7.028;2023-12-29T14:58:35;3.03;;;0.57;;
71503;SDS011;59323;50.874;7.028;2023-12-29T15:01:04;0.93;;;0.40;;
71503;SDS011;59323;50.874;7.028;2023-12-29T15:03:30;1.27;;;0.50;;
71503;SDS011;59323;50.874;7.028;2023-12-29T15:05:56;1.35;;;0.30;;
71503;SDS011;59323;50.874;7.028;2023-12-29T15:08:21;3.40;;;0.30;;
71503;SDS011;59323;50.874;7.028;2023-12-29T15:10:47;0.53;;;0.30;;
71503;SDS011;59323;50.874;7.028;2023-12-29T15:13:12;0.90;;;0.40;;
71503;SDS011;59323;50.874;7.028;2023-12-29T15:15:38;0.87;;;0.40;;
71503;SDS011;59323;50.874;7.028;2023-12-29T15:18:03;1.25;;;0.40;;
71503;SDS011;59323;50.874;7.028;2023-12-29T15:20:29;1.23;;;0.30;;
71503;SDS011;59323;50.874;7.028;2023-12-29T15:22:54;2.78;;;0.30;;
71503;SDS011;59323;50.874;7.028;2023-12-29T15:25:23;1.00;;;0.20;;